createdAt,value
2023-04-15T00:01:41.097Z,6.55
2023-04-15T00:04:07.883Z,5.95
2023-04-15T00:06:35.141Z,6.18
2023-04-15T00:09:02.503Z,6.05
2023-04-15T00:11:29.513Z,5.90
2023-04-15T00:13:56.373Z,5.70
2023-04-15T00:16:23.578Z,5.82
2023-04-15T00:18:50.315Z,6.18
2023-04-15T00:21:17.243Z,5.93
2023-04-15T00:23:44.236Z,6.10
2023-04-15T00:26:10.984Z,6.20
2023-04-15T00:28:38.599Z,5.88
2023-04-15T00:31:05.809Z,6.60
2023-04-15T00:33:33.377Z,6.25
2023-04-15T00:36:00.130Z,6.63
2023-04-15T00:38:27.157Z,6.60
2023-04-15T00:40:54.146Z,6.40
2023-04-15T00:43:23.601Z,6.72
2023-04-15T00:45:52.112Z,6.22
2023-04-15T00:48:19.024Z,6.82
2023-04-15T00:50:45.762Z,6.50
2023-04-15T00:53:12.732Z,6.45
2023-04-15T00:55:40.056Z,6.47
2023-04-15T00:58:07.201Z,6.57
2023-04-15T01:00:34.659Z,6.97
2023-04-15T01:03:01.722Z,6.68
2023-04-15T01:05:28.629Z,6.53
2023-04-15T01:07:56.772Z,6.38
2023-04-15T01:10:23.667Z,7.28
2023-04-15T01:12:50.502Z,6.32
2023-04-15T01:15:17.369Z,7.93
2023-04-15T01:17:44.251Z,7.68
2023-04-15T01:20:12.164Z,7.30
2023-04-15T01:22:39.573Z,7.72
2023-04-15T01:25:10.699Z,7.80
2023-04-15T01:27:39.969Z,7.72
2023-04-15T01:30:07.945Z,7.55
2023-04-15T01:32:34.729Z,7.57
2023-04-15T01:35:20.251Z,7.13
2023-04-15T01:37:48.296Z,7.50
2023-04-15T01:40:17.407Z,7.70
2023-04-15T01:42:45.652Z,7.50
2023-04-15T01:45:14.182Z,7.95
2023-04-15T01:47:42.516Z,7.63
2023-04-15T01:50:11.344Z,8.60
2023-04-15T01:52:39.577Z,8.75
2023-04-15T01:55:08.578Z,7.65
2023-04-15T01:57:37.100Z,8.20
2023-04-15T02:00:05.268Z,8.85
2023-04-15T02:02:41.505Z,7.80
2023-04-15T02:05:09.976Z,7.57
2023-04-15T02:07:38.752Z,7.18
2023-04-15T02:10:07.252Z,7.50
2023-04-15T02:12:37.028Z,7.43
2023-04-15T02:15:05.469Z,8.05
2023-04-15T02:17:37.673Z,7.88
2023-04-15T02:20:06.477Z,7.32
2023-04-15T02:22:36.092Z,6.85
2023-04-15T02:25:06.969Z,7.82
2023-04-15T02:27:36.219Z,6.88
2023-04-15T02:30:07.697Z,7.13
2023-04-15T02:32:38.092Z,6.78
2023-04-15T02:35:07.732Z,7.03
2023-04-15T02:37:40.846Z,7.13
2023-04-15T02:40:13.746Z,7.28
2023-04-15T02:42:42.996Z,7.82
2023-04-15T02:45:13.764Z,6.75
2023-04-15T02:47:44.078Z,7.55
2023-04-15T02:50:13.334Z,7.53
2023-04-15T02:52:44.785Z,7.43
2023-04-15T02:55:16.310Z,7.55
2023-04-15T02:57:44.455Z,7.25
2023-04-15T03:00:16.285Z,7.47
2023-04-15T03:02:47.123Z,7.10
2023-04-15T03:05:15.462Z,7.70
2023-04-15T03:07:49.558Z,7.75
2023-04-15T03:10:17.884Z,8.02
2023-04-15T03:12:47.574Z,7.40
2023-04-15T03:15:19.329Z,7.25
2023-04-15T03:17:51.218Z,7.68
2023-04-15T03:20:19.723Z,7.15
2023-04-15T03:22:49.304Z,7.32
2023-04-15T03:25:17.611Z,6.97
2023-04-15T03:27:45.528Z,7.05
2023-04-15T03:30:14.990Z,6.82
2023-04-15T03:32:43.167Z,7.13
2023-04-15T03:35:11.321Z,6.85
2023-04-15T03:37:39.549Z,6.72
2023-04-15T03:40:08.817Z,7.28
2023-04-15T03:42:37.082Z,7.22
2023-04-15T03:45:05.724Z,6.47
2023-04-15T03:47:33.827Z,6.80
2023-04-15T03:50:01.951Z,6.75
2023-04-15T03:52:29.989Z,6.70
2023-04-15T03:54:58.045Z,6.85
2023-04-15T03:57:26.465Z,7.50
2023-04-15T03:59:54.652Z,7.60
2023-04-15T04:02:23.327Z,7.07
2023-04-15T04:04:53.187Z,7.40
2023-04-15T04:07:24.341Z,6.47
2023-04-15T04:10:05.811Z,6.90
2023-04-15T04:12:35.009Z,6.60
2023-04-15T04:15:03.372Z,7.22
2023-04-15T04:17:31.591Z,6.57
2023-04-15T04:19:59.906Z,6.85
2023-04-15T04:22:29.337Z,6.35
2023-04-15T04:25:00.668Z,7.13
2023-04-15T04:27:28.878Z,7.00
2023-04-15T04:29:56.764Z,7.35
2023-04-15T04:32:25.030Z,7.18
2023-04-15T04:34:52.987Z,7.57
2023-04-15T04:37:20.940Z,7.53
2023-04-15T04:39:49.150Z,6.75
2023-04-15T04:42:17.101Z,6.80
2023-04-15T04:44:45.190Z,7.60
2023-04-15T04:47:13.980Z,7.60
2023-04-15T04:49:42.260Z,6.68
2023-04-15T04:52:10.752Z,7.45
2023-04-15T04:54:38.843Z,7.80
2023-04-15T04:57:08.125Z,7.55
2023-04-15T04:59:38.919Z,7.80
2023-04-15T05:02:07.348Z,7.28
2023-04-15T05:04:35.717Z,7.78
2023-04-15T05:07:03.649Z,7.65
2023-04-15T05:09:32.645Z,7.18
2023-04-15T05:12:01.411Z,7.30
2023-04-15T05:14:29.540Z,7.68
2023-04-15T05:16:57.652Z,7.85
2023-04-15T05:19:25.753Z,7.20
2023-04-15T05:21:53.729Z,7.43
2023-04-15T05:24:22.415Z,7.03
2023-04-15T05:26:50.510Z,8.85
2023-04-15T05:29:18.479Z,7.45
2023-04-15T05:31:46.714Z,7.75
2023-04-15T05:34:16.541Z,7.22
2023-04-15T05:36:44.500Z,7.82
2023-04-15T05:39:12.898Z,7.32
2023-04-15T05:41:41.088Z,7.50
2023-04-15T05:44:09.524Z,7.15
2023-04-15T05:46:37.860Z,7.03
2023-04-15T05:49:06.234Z,7.25
2023-04-15T05:51:34.149Z,7.57
2023-04-15T05:54:02.348Z,7.35
2023-04-15T05:56:30.642Z,7.07
2023-04-15T05:59:02.222Z,7.65
2023-04-15T06:01:30.914Z,7.65
2023-04-15T06:03:58.922Z,7.57
2023-04-15T06:06:27.358Z,6.60
2023-04-15T06:08:55.968Z,7.60
2023-04-15T06:11:24.190Z,7.32
2023-04-15T06:13:52.199Z,7.97
2023-04-15T06:16:20.220Z,7.80
2023-04-15T06:18:48.169Z,8.07
2023-04-15T06:21:16.426Z,7.22
2023-04-15T06:23:44.528Z,7.35
2023-04-15T06:26:12.760Z,8.27
2023-04-15T06:28:40.798Z,7.47
2023-04-15T06:31:08.824Z,7.03
2023-04-15T06:33:36.972Z,7.32
2023-04-15T06:36:05.213Z,7.18
2023-04-15T06:38:33.267Z,7.75
2023-04-15T06:41:01.348Z,7.70
2023-04-15T06:43:29.716Z,7.05
2023-04-15T06:45:58.203Z,7.00
2023-04-15T06:48:26.371Z,7.80
2023-04-15T06:50:54.741Z,7.38
2023-04-15T06:53:23.001Z,7.32
2023-04-15T06:55:52.459Z,7.53
2023-04-15T06:58:20.457Z,7.85
2023-04-15T07:00:48.832Z,7.30
2023-04-15T07:03:17.170Z,7.80
2023-04-15T07:05:45.090Z,7.72
2023-04-15T07:08:14.160Z,7.80
2023-04-15T07:10:42.071Z,8.32
2023-04-15T07:13:10.400Z,7.30
2023-04-15T07:15:38.492Z,7.90
2023-04-15T07:18:06.708Z,7.00
2023-04-15T07:20:34.637Z,7.03
2023-04-15T07:23:02.817Z,7.60
2023-04-15T07:25:51.756Z,7.18
2023-04-15T07:28:22.693Z,7.70
2023-04-15T07:30:50.778Z,7.63
2023-04-15T07:33:19.036Z,7.13
2023-04-15T07:35:47.184Z,7.90
2023-04-15T07:38:15.562Z,8.35
2023-04-15T07:40:44.041Z,7.70
2023-04-15T07:43:17.203Z,7.07
2023-04-15T07:45:45.398Z,6.88
2023-04-15T07:48:13.343Z,7.43
2023-04-15T07:50:41.503Z,6.75
2023-04-15T07:53:09.598Z,6.88
2023-04-15T07:55:37.517Z,6.70
2023-04-15T07:58:05.829Z,6.22
2023-04-15T08:00:33.842Z,6.57
2023-04-15T08:03:02.397Z,6.93
2023-04-15T08:05:30.464Z,6.20
2023-04-15T08:07:58.760Z,6.93
2023-04-15T08:10:27.317Z,6.93
2023-04-15T08:12:55.445Z,7.20
2023-04-15T08:15:23.570Z,6.15
2023-04-15T08:17:51.690Z,6.65
2023-04-15T08:20:19.743Z,6.40
2023-04-15T08:22:51.776Z,6.45
2023-04-15T08:25:22.813Z,6.18
2023-04-15T08:27:50.969Z,5.95
2023-04-15T08:30:19.539Z,6.38
2023-04-15T08:32:47.700Z,6.93
2023-04-15T08:35:15.828Z,6.15
2023-04-15T08:37:43.967Z,6.38
2023-04-15T08:40:12.768Z,5.72
2023-04-15T08:42:49.052Z,6.28
2023-04-15T08:45:18.291Z,6.28
2023-04-15T08:47:48.843Z,6.13
2023-04-15T08:50:17.252Z,6.85
2023-04-15T08:52:45.439Z,7.40
2023-04-15T08:55:13.768Z,6.68
2023-04-15T08:57:41.933Z,6.35
2023-04-15T09:00:10.667Z,5.82
2023-04-15T09:02:39.370Z,5.88
2023-04-15T09:05:07.939Z,5.03
2023-04-15T09:07:36.683Z,4.85
2023-04-15T09:10:04.967Z,4.40
2023-04-15T09:12:34.802Z,4.78
2023-04-15T09:15:03.351Z,4.93
2023-04-15T09:17:34.810Z,5.18
2023-04-15T09:20:09.764Z,4.05
2023-04-15T09:22:38.133Z,4.15
2023-04-15T09:25:14.947Z,4.22
2023-04-15T09:27:49.929Z,4.68
2023-04-15T09:30:18.368Z,3.40
2023-04-15T09:33:08.362Z,3.45
2023-04-15T09:35:37.106Z,3.67
2023-04-15T09:38:05.975Z,3.75
2023-04-15T09:40:37.210Z,3.35
2023-04-15T09:43:06.235Z,3.60
2023-04-15T09:45:34.824Z,3.20
2023-04-15T09:48:32.022Z,3.30
2023-04-15T09:51:00.588Z,2.72
2023-04-15T09:53:30.561Z,2.85
2023-04-15T09:56:03.122Z,2.63
2023-04-15T09:58:31.854Z,2.60
2023-04-15T10:01:01.790Z,2.60
2023-04-15T10:03:31.741Z,2.67
2023-04-15T10:06:00.790Z,3.25
2023-04-15T10:08:33.817Z,3.00
2023-04-15T10:11:02.582Z,3.03
2023-04-15T10:13:36.669Z,2.83
2023-04-15T10:16:11.970Z,3.10
2023-04-15T10:21:08.746Z,2.88
2023-04-15T10:23:36.930Z,2.90
2023-04-15T10:26:05.050Z,2.70
2023-04-15T10:28:33.018Z,2.55
2023-04-15T10:31:01.483Z,1.85
2023-04-15T10:33:29.829Z,2.30
2023-04-15T10:35:57.971Z,1.95
2023-04-15T10:38:32.279Z,2.17
2023-04-15T10:41:18.721Z,2.22
2023-04-15T10:43:51.750Z,2.08
2023-04-15T10:46:40.167Z,1.80
2023-04-15T10:49:12.836Z,1.90
2023-04-15T10:51:42.177Z,2.13
2023-04-15T10:54:14.488Z,2.08
2023-04-15T10:56:43.890Z,2.10
2023-04-15T10:59:12.111Z,2.08
2023-04-15T11:02:00.218Z,2.10
2023-04-15T11:04:47.107Z,1.92
2023-04-15T11:07:15.147Z,2.13
2023-04-15T11:09:43.172Z,2.22
2023-04-15T11:12:11.973Z,2.28
2023-04-15T11:14:41.453Z,2.80
2023-04-15T11:17:09.604Z,2.65
2023-04-15T11:19:38.921Z,2.40
2023-04-15T11:22:08.405Z,1.90
2023-04-15T11:24:37.037Z,1.90
2023-04-15T11:27:04.980Z,2.22
2023-04-15T11:29:33.051Z,2.10
2023-04-15T11:32:09.521Z,2.20
2023-04-15T11:34:37.828Z,2.15
2023-04-15T11:37:06.416Z,1.95
2023-04-15T11:39:34.443Z,2.83
2023-04-15T11:42:02.778Z,2.50
2023-04-15T11:44:30.742Z,2.22
2023-04-15T11:46:58.817Z,2.85
2023-04-15T11:49:31.265Z,2.10
2023-04-15T11:51:58.099Z,3.10
2023-04-15T11:54:24.859Z,2.67
2023-04-15T11:56:52.679Z,3.30
2023-04-15T11:59:19.602Z,2.85
2023-04-15T12:01:47.730Z,2.90
2023-04-15T12:04:17.164Z,2.72
2023-04-15T12:06:44.561Z,2.20
2023-04-15T12:09:12.454Z,2.47
2023-04-15T12:11:43.457Z,2.05
2023-04-15T12:14:21.561Z,2.55
2023-04-15T12:16:51.717Z,2.50
2023-04-15T12:19:24.402Z,2.50
2023-04-15T12:21:51.528Z,2.55
2023-04-15T12:24:21.015Z,3.00
2023-04-15T12:26:48.803Z,3.70
2023-04-15T12:29:16.901Z,2.83
2023-04-15T12:31:47.781Z,2.15
2023-04-15T12:34:14.632Z,1.77
2023-04-15T12:36:41.407Z,1.90
2023-04-15T12:39:08.119Z,1.95
2023-04-15T12:41:35.006Z,1.67
2023-04-15T12:44:02.014Z,1.67
2023-04-15T12:46:29.001Z,1.50
2023-04-15T12:48:55.933Z,1.40
2023-04-15T12:51:22.696Z,1.23
2023-04-15T12:53:49.781Z,1.38
2023-04-15T12:56:19.913Z,1.25
2023-04-15T12:58:47.059Z,1.20
2023-04-15T13:01:14.005Z,1.23
2023-04-15T13:03:41.274Z,1.40
2023-04-15T13:06:08.231Z,1.75
2023-04-15T13:08:36.950Z,1.65
2023-04-15T13:11:07.305Z,1.80
2023-04-15T13:13:34.290Z,2.03
2023-04-15T13:16:01.097Z,1.70
2023-04-15T13:18:27.968Z,1.75
2023-04-15T13:20:55.417Z,1.92
2023-04-15T13:23:22.237Z,1.95
2023-04-15T13:25:49.031Z,1.42
2023-04-15T13:28:15.942Z,1.60
2023-04-15T13:30:44.083Z,1.38
2023-04-15T13:33:11.350Z,1.20
2023-04-15T13:35:38.040Z,1.52
2023-04-15T13:38:05.170Z,1.00
2023-04-15T13:40:32.085Z,1.30
2023-04-15T13:42:59.951Z,1.52
2023-04-15T13:45:27.116Z,1.38
2023-04-15T13:47:55.627Z,1.52
2023-04-15T13:50:22.621Z,1.25
2023-04-15T13:52:49.506Z,0.73
2023-04-15T13:55:20.625Z,1.20
2023-04-15T13:57:48.861Z,1.10
2023-04-15T14:00:15.708Z,1.00
2023-04-15T14:02:42.902Z,0.70
2023-04-15T14:05:10.780Z,1.17
2023-04-15T14:07:37.731Z,1.23
2023-04-15T14:10:04.743Z,1.10
2023-04-15T14:12:32.031Z,1.42
2023-04-15T14:14:58.799Z,1.30
2023-04-15T14:17:25.640Z,1.40
2023-04-15T14:19:52.435Z,1.23
2023-04-15T14:22:19.353Z,1.20
2023-04-15T14:24:46.281Z,1.70
2023-04-15T14:27:13.022Z,1.00
2023-04-15T14:29:41.015Z,1.45
2023-04-15T14:32:11.941Z,1.40
2023-04-15T14:34:39.577Z,1.10
2023-04-15T14:37:06.478Z,1.08
2023-04-15T14:39:33.296Z,1.27
2023-04-15T14:42:00.419Z,0.95
2023-04-15T14:44:27.289Z,1.08
2023-04-15T14:46:54.893Z,1.30
2023-04-15T14:49:21.883Z,1.10
2023-04-15T14:51:48.636Z,1.23
2023-04-15T14:54:15.560Z,1.00
2023-04-15T14:56:42.324Z,1.23
2023-04-15T14:59:09.049Z,0.98
2023-04-15T15:01:36.355Z,0.70
2023-04-15T15:04:03.900Z,0.60
2023-04-15T15:06:31.533Z,0.80
2023-04-15T15:08:58.262Z,0.75
2023-04-15T15:11:25.548Z,0.90
2023-04-15T15:13:52.372Z,0.88
2023-04-15T15:16:19.219Z,1.17
2023-04-15T15:18:45.984Z,1.05
2023-04-15T15:21:12.740Z,0.80
2023-04-15T15:23:39.542Z,1.05
2023-04-15T15:26:06.417Z,0.88
2023-04-15T15:28:34.166Z,0.95
2023-04-15T15:31:01.124Z,1.30
2023-04-15T15:33:29.616Z,1.40
2023-04-15T15:36:00.294Z,1.10
2023-04-15T15:38:27.786Z,1.60
2023-04-15T15:40:54.696Z,1.30
2023-04-15T15:43:21.429Z,1.20
2023-04-15T15:45:51.784Z,0.90
2023-04-15T15:48:18.886Z,1.35
2023-04-15T15:50:45.845Z,1.90
2023-04-15T15:53:17.870Z,1.77
2023-04-15T15:55:44.738Z,1.38
2023-04-15T15:58:11.590Z,1.58
2023-04-15T16:00:38.479Z,3.00
2023-04-15T16:03:07.222Z,1.73
2023-04-15T16:05:35.409Z,1.50
2023-04-15T16:08:02.404Z,1.52
2023-04-15T16:10:29.264Z,1.20
2023-04-15T16:12:56.406Z,1.10
2023-04-15T16:15:25.459Z,1.30
2023-04-15T16:17:52.462Z,1.20
2023-04-15T16:20:19.350Z,1.30
2023-04-15T16:22:46.356Z,1.10
2023-04-15T16:25:13.177Z,1.42
2023-04-15T16:27:54.669Z,1.42
2023-04-15T16:30:27.235Z,1.00
2023-04-15T16:32:54.141Z,1.20
2023-04-15T16:35:20.998Z,1.00
2023-04-15T16:37:47.722Z,1.40
2023-04-15T16:40:15.011Z,1.20
2023-04-15T16:42:43.669Z,1.30
2023-04-15T16:45:10.937Z,1.10
2023-04-15T16:47:37.745Z,2.00
2023-04-15T16:50:04.769Z,1.10
2023-04-15T16:52:31.490Z,1.52
2023-04-15T16:54:58.324Z,0.90
2023-04-15T16:57:25.206Z,1.35
2023-04-15T16:59:59.712Z,0.80
2023-04-15T17:02:26.777Z,0.80
2023-04-15T17:04:53.546Z,1.67
2023-04-15T17:07:20.451Z,1.08
2023-04-15T17:09:47.230Z,1.23
2023-04-15T17:12:14.075Z,0.93
2023-04-15T17:14:40.963Z,0.77
2023-04-15T17:17:07.806Z,0.77
2023-04-15T17:19:36.794Z,1.13
2023-04-15T17:22:06.674Z,0.70
2023-04-15T17:24:35.309Z,1.13
2023-04-15T17:27:06.797Z,1.10
2023-04-15T17:29:35.543Z,1.85
2023-04-15T17:32:05.464Z,1.45
2023-04-15T17:34:52.328Z,1.25
2023-04-15T17:37:19.086Z,1.33
2023-04-15T17:40:08.800Z,1.20
2023-04-15T17:42:56.176Z,1.40
2023-04-15T17:45:47.352Z,42.90
2023-04-15T17:48:34.323Z,44.63
2023-04-15T17:51:21.794Z,13.27
2023-04-15T17:54:08.702Z,49.53
2023-04-15T17:56:56.775Z,11.23
2023-04-15T17:59:45.047Z,9.38
2023-04-15T18:02:36.921Z,10.10
2023-04-15T18:05:24.173Z,4.18
2023-04-15T18:08:11.640Z,1.95
2023-04-15T18:10:58.437Z,25.05
2023-04-15T18:16:31.980Z,16.75
2023-04-15T18:19:19.215Z,5.50
2023-04-15T18:21:46.567Z,4.63
2023-04-15T18:24:13.351Z,3.85
2023-04-15T18:26:40.311Z,1.98
2023-04-15T18:29:07.161Z,2.55
2023-04-15T18:31:34.135Z,7.00
2023-04-15T18:34:00.904Z,3.60
2023-04-15T18:36:27.788Z,2.38
2023-04-15T18:38:54.605Z,3.92
2023-04-15T18:41:21.625Z,4.35
2023-04-15T18:43:48.316Z,1.33
2023-04-15T18:46:15.232Z,3.63
2023-04-15T18:48:42.136Z,11.98
2023-04-15T18:51:08.966Z,2.00
2023-04-15T18:53:35.983Z,1.58
2023-04-15T18:56:03.430Z,2.00
2023-04-15T18:59:21.254Z,1.55
2023-04-15T19:01:17.340Z,1.75
2023-04-15T19:03:44.357Z,1.23
2023-04-15T19:06:11.162Z,1.77
2023-04-15T19:08:37.900Z,1.65
2023-04-15T19:11:04.663Z,3.42
2023-04-15T19:13:31.460Z,1.27
2023-04-15T19:15:58.249Z,1.13
2023-04-15T19:18:26.532Z,1.42
2023-04-15T19:20:55.857Z,1.77
2023-04-15T19:23:23.133Z,1.20
2023-04-15T19:25:50.016Z,1.60
2023-04-15T19:28:16.793Z,1.35
2023-04-15T19:30:43.631Z,1.88
2023-04-15T19:33:10.986Z,1.30
2023-04-15T19:35:38.313Z,1.50
2023-04-15T19:38:05.002Z,1.80
2023-04-15T19:40:31.705Z,1.20
2023-04-15T19:42:58.442Z,1.20
2023-04-15T19:45:25.325Z,1.27
2023-04-15T19:47:53.146Z,1.52
2023-04-15T19:50:24.606Z,2.38
2023-04-15T19:52:51.411Z,1.40
2023-04-15T19:55:18.294Z,1.42
2023-04-15T19:57:45.343Z,1.52
2023-04-15T20:00:12.539Z,1.58
2023-04-15T20:02:39.813Z,1.77
2023-04-15T20:05:09.895Z,1.52
2023-04-15T20:07:36.795Z,2.20
2023-04-15T20:10:12.240Z,1.58
2023-04-15T20:15:18.899Z,2.08
2023-04-15T20:17:45.845Z,1.58
2023-04-15T20:20:12.794Z,1.88
2023-04-15T20:22:39.689Z,1.50
2023-04-15T20:25:06.651Z,1.30
2023-04-15T20:27:33.542Z,1.80
2023-04-15T20:30:00.578Z,1.55
2023-04-15T20:32:28.413Z,1.30
2023-04-15T20:34:55.365Z,1.67
2023-04-15T20:37:22.513Z,1.27
2023-04-15T20:39:49.246Z,1.30
2023-04-15T20:42:16.202Z,1.33
2023-04-15T20:44:43.000Z,2.28
2023-04-15T20:47:09.938Z,1.77
2023-04-15T20:49:37.461Z,1.30
2023-04-15T20:52:05.161Z,1.70
2023-04-15T20:54:32.056Z,1.25
2023-04-15T20:56:58.910Z,1.35
2023-04-15T20:59:25.872Z,1.40
2023-04-15T21:01:52.928Z,1.50
2023-04-15T21:04:21.972Z,0.98
2023-04-15T21:06:48.873Z,1.23
2023-04-15T21:09:15.667Z,1.80
2023-04-15T21:11:59.755Z,1.55
2023-04-15T21:14:27.238Z,1.27
2023-04-15T21:16:54.067Z,1.45
2023-04-15T21:19:21.011Z,1.13
2023-04-15T21:21:47.837Z,1.33
2023-04-15T21:24:14.545Z,1.35
2023-04-15T21:26:41.369Z,1.25
2023-04-15T21:29:11.141Z,0.88
2023-04-15T21:31:38.670Z,1.08
2023-04-15T21:34:05.874Z,0.95
2023-04-15T21:36:32.750Z,1.42
2023-04-15T21:39:00.007Z,1.17
2023-04-15T21:41:27.005Z,1.23
2023-04-15T21:43:53.977Z,1.58
2023-04-15T21:46:24.542Z,1.27
2023-04-15T21:48:55.481Z,1.58
2023-04-15T21:51:22.881Z,1.25
2023-04-15T21:53:49.813Z,1.52
2023-04-15T21:56:16.776Z,1.13
2023-04-15T21:58:43.657Z,2.10
2023-04-15T22:01:11.012Z,1.10
2023-04-15T22:03:38.136Z,1.00
2023-04-15T22:06:05.188Z,1.50
2023-04-15T22:08:41.217Z,1.30
2023-04-15T22:11:26.316Z,1.33
2023-04-15T22:13:53.962Z,1.50
2023-04-15T22:16:21.039Z,1.50
2023-04-15T22:18:48.089Z,1.45
2023-04-15T22:21:15.022Z,1.23
2023-04-15T22:23:41.873Z,1.52
2023-04-15T22:26:08.745Z,1.55
2023-04-15T22:28:35.735Z,1.50
2023-04-15T22:31:02.649Z,1.10
2023-04-15T22:33:29.872Z,1.80
2023-04-15T22:35:56.842Z,1.15
2023-04-15T22:38:24.392Z,1.45
2023-04-15T22:40:53.927Z,1.15
2023-04-15T22:43:20.845Z,1.23
2023-04-15T22:45:51.126Z,1.60
2023-04-15T22:48:18.342Z,1.25
2023-04-15T22:50:45.237Z,1.63
2023-04-15T22:53:12.022Z,1.48
2023-04-15T22:55:39.477Z,1.60
2023-04-15T22:58:06.322Z,1.33
2023-04-15T23:00:33.273Z,1.52
2023-04-15T23:03:00.360Z,1.92
2023-04-15T23:05:27.690Z,1.75
2023-04-15T23:07:54.667Z,2.00
2023-04-15T23:10:21.610Z,1.63
2023-04-15T23:12:48.578Z,1.80
2023-04-15T23:15:15.837Z,2.47
2023-04-15T23:17:43.166Z,2.05
2023-04-15T23:20:11.390Z,1.90
2023-04-15T23:22:38.805Z,2.05
2023-04-15T23:25:06.256Z,2.80
2023-04-15T23:27:33.152Z,2.70
2023-04-15T23:29:59.922Z,2.58
2023-04-15T23:32:27.601Z,3.13
2023-04-15T23:34:54.826Z,2.70
2023-04-15T23:37:21.776Z,2.88
2023-04-15T23:39:48.610Z,3.47
2023-04-15T23:42:15.477Z,3.17
2023-04-15T23:44:42.261Z,2.92
2023-04-15T23:47:09.554Z,3.55
2023-04-15T23:49:37.027Z,3.42
2023-04-15T23:52:03.978Z,3.33
2023-04-15T23:54:30.840Z,3.45
2023-04-15T23:56:57.671Z,3.80
2023-04-15T23:59:24.723Z,3.35
